Terminal Aerodrome Forecast
Issued by NWS Charleston, WV

Current Version | Previous Version | Graphics & Text | Print | Product List | Glossary On
Versions: 1 2 3 4 5 6 7 8 9 10 11 12 13 14 15 16 17 18 19 20 21 22 23 24
000
FTUS41 KRLX 281000 AAC
TAFHTS
TAF AMD
KHTS 281050Z 2811/2906 00000KT 3SM BR SCT002
     FM281300 00000KT 6SM BR SCT002
     FM281400 00000KT P6SM SCT200
     FM281800 VRB03KT P6SM SCT045=

USA.gov is the U.S. government's official web portal to all federal, state and local government web resources and services.